sensor_id;sensor_type;location;lat;lon;timestamp;pressure;altitude;pressure_sealevel;temperature;humidity
61961;BME280;47923;42.506;24.192;2023-09-07T00:00:39;95445.41;;;15.31;77.12
61961;BME280;47923;42.506;24.192;2023-09-07T00:03:04;95973.00;;;18.85;77.98
61961;BME280;47923;42.506;24.192;2023-09-07T00:05:31;96010.47;;;19.02;78.31
61961;BME280;47923;42.506;24.192;2023-09-07T00:07:56;96018.25;;;19.11;78.55
61961;BME280;47923;42.506;24.192;2023-09-07T00:10:22;95708.50;;;17.06;78.37
61961;BME280;47923;42.506;24.192;2023-09-07T00:12:47;95670.34;;;16.81;78.41
61961;BME280;47923;42.506;24.192;2023-09-07T00:15:13;96051.81;;;19.25;79.36
61961;BME280;47923;42.506;24.192;2023-09-07T00:17:38;95375.41;;;14.78;78.98
61961;BME280;47923;42.506;24.192;2023-09-07T00:20:04;95946.97;;;18.52;79.32
61961;BME280;47923;42.506;24.192;2023-09-07T00:22:36;96035.09;;;19.05;79.23
61961;BME280;47923;42.506;24.192;2023-09-07T00:25:02;95994.16;;;18.81;78.83
61961;BME280;47923;42.506;24.192;2023-09-07T00:27:29;95982.06;;;18.71;79.71
61961;BME280;47923;42.506;24.192;2023-09-07T00:29:55;96072.19;;;19.21;79.36
61961;BME280;47923;42.506;24.192;2023-09-07T00:32:20;96054.97;;;19.20;79.23
61961;BME280;47923;42.506;24.192;2023-09-07T00:34:46;96053.81;;;19.18;78.84
61961;BME280;47923;42.506;24.192;2023-09-07T00:37:11;96050.69;;;19.19;78.20
61961;BME280;47923;42.506;24.192;2023-09-07T00:39:37;95810.53;;;17.62;77.75
61961;BME280;47923;42.506;24.192;2023-09-07T00:42:03;95883.41;;;18.15;79.54
61961;BME280;47923;42.506;24.192;2023-09-07T00:44:29;95989.44;;;18.85;78.74
61961;BME280;47923;42.506;24.192;2023-09-07T00:46:56;95957.88;;;18.55;78.47
61961;BME280;47923;42.506;24.192;2023-09-07T00:49:22;95604.53;;;16.29;77.94
61961;BME280;47923;42.506;24.192;2023-09-07T00:51:47;96042.84;;;19.25;77.47
61961;BME280;47923;42.506;24.192;2023-09-07T00:54:13;95833.13;;;17.84;77.25
61961;BME280;47923;42.506;24.192;2023-09-07T00:56:38;95733.00;;;17.24;77.21
61961;BME280;47923;42.506;24.192;2023-09-07T00:59:06;96047.53;;;19.24;79.93
61961;BME280;47923;42.506;24.192;2023-09-07T01:01:32;95916.94;;;18.34;79.44
61961;BME280;47923;42.506;24.192;2023-09-07T01:03:58;95335.69;;;14.37;78.98
61961;BME280;47923;42.506;24.192;2023-09-07T01:06:30;96044.03;;;19.17;79.72
61961;BME280;47923;42.506;24.192;2023-09-07T01:08:58;96033.50;;;19.12;80.77
61961;BME280;47923;42.506;24.192;2023-09-07T01:11:36;96046.44;;;19.08;81.49
61961;BME280;47923;42.506;24.192;2023-09-07T01:14:02;96036.66;;;19.07;79.53
61961;BME280;47923;42.506;24.192;2023-09-07T01:16:30;96038.19;;;19.15;81.23
61961;BME280;47923;42.506;24.192;2023-09-07T01:18:56;95964.91;;;18.60;81.52
61961;BME280;47923;42.506;24.192;2023-09-07T01:21:22;96033.06;;;19.17;81.52
61961;BME280;47923;42.506;24.192;2023-09-07T01:23:48;96033.91;;;19.07;81.87
61961;BME280;47923;42.506;24.192;2023-09-07T01:26:15;96005.47;;;18.90;81.34
61961;BME280;47923;42.506;24.192;2023-09-07T01:28:40;95700.34;;;16.85;81.63
61961;BME280;47923;42.506;24.192;2023-09-07T01:31:07;96018.75;;;18.91;81.56
61961;BME280;47923;42.506;24.192;2023-09-07T01:33:32;95707.38;;;16.86;82.04
61961;BME280;47923;42.506;24.192;2023-09-07T01:35:58;96039.75;;;19.09;82.02
61961;BME280;47923;42.506;24.192;2023-09-07T01:38:23;95971.63;;;18.44;82.70
61961;BME280;47923;42.506;24.192;2023-09-07T01:40:49;96048.81;;;18.98;82.80
61961;BME280;47923;42.506;24.192;2023-09-07T01:43:14;96046.50;;;18.97;82.86
61961;BME280;47923;42.506;24.192;2023-09-07T01:45:40;96044.56;;;18.90;82.98
61961;BME280;47923;42.506;24.192;2023-09-07T01:48:13;96030.88;;;18.87;83.14
61961;BME280;47923;42.506;24.192;2023-09-07T01:50:39;95957.19;;;18.33;82.79
61961;BME280;47923;42.506;24.192;2023-09-07T01:53:04;95952.09;;;18.28;83.48
61961;BME280;47923;42.506;24.192;2023-09-07T01:55:31;96038.75;;;18.74;83.90
61961;BME280;47923;42.506;24.192;2023-09-07T01:57:56;96029.38;;;18.71;84.16
61961;BME280;47923;42.506;24.192;2023-09-07T02:00:22;96054.81;;;18.61;83.94
61961;BME280;47923;42.506;24.192;2023-09-07T02:02:47;96031.34;;;18.60;85.16
61961;BME280;47923;42.506;24.192;2023-09-07T02:05:13;95470.63;;;14.85;84.61
61961;BME280;47923;42.506;24.192;2023-09-07T02:07:38;96043.06;;;18.61;85.20
61961;BME280;47923;42.506;24.192;2023-09-07T02:10:05;96036.03;;;18.56;85.19
61961;BME280;47923;42.506;24.192;2023-09-07T02:12:30;95758.03;;;16.73;85.68
61961;BME280;47923;42.506;24.192;2023-09-07T02:14:56;96017.34;;;18.40;85.25
61961;BME280;47923;42.506;24.192;2023-09-07T02:17:21;96012.28;;;18.32;84.80
61961;BME280;47923;42.506;24.192;2023-09-07T02:19:47;96041.13;;;18.54;83.50
61961;BME280;47923;42.506;24.192;2023-09-07T02:22:12;96041.53;;;18.53;84.43
61961;BME280;47923;42.506;24.192;2023-09-07T02:24:37;96057.19;;;18.52;84.44
61961;BME280;47923;42.506;24.192;2023-09-07T02:27:03;96021.25;;;18.32;84.94
61961;BME280;47923;42.506;24.192;2023-09-07T02:29:29;95733.44;;;16.16;84.63
61961;BME280;47923;42.506;24.192;2023-09-07T02:31:55;95931.56;;;17.49;85.41
61961;BME280;47923;42.506;24.192;2023-09-07T02:34:21;96045.84;;;18.43;85.33
61961;BME280;47923;42.506;24.192;2023-09-07T02:36:47;95978.75;;;17.92;85.49
61961;BME280;47923;42.506;24.192;2023-09-07T02:39:12;95699.16;;;16.04;86.11
61961;BME280;47923;42.506;24.192;2023-09-07T02:41:38;95438.97;;;14.34;86.24
61961;BME280;47923;42.506;24.192;2023-09-07T02:44:04;95891.38;;;17.13;86.51
61961;BME280;47923;42.506;24.192;2023-09-07T02:46:29;96031.88;;;18.02;87.35
61961;BME280;47923;42.506;24.192;2023-09-07T02:48:56;96000.66;;;17.74;88.01
61961;BME280;47923;42.506;24.192;2023-09-07T02:51:23;95975.66;;;17.65;87.57
61961;BME280;47923;42.506;24.192;2023-09-07T02:53:49;96046.31;;;18.16;87.20
61961;BME280;47923;42.506;24.192;2023-09-07T02:56:14;95868.75;;;16.84;86.46
61961;BME280;47923;42.506;24.192;2023-09-07T02:58:40;96054.91;;;18.11;85.45
61961;BME280;47923;42.506;24.192;2023-09-07T03:01:06;95984.63;;;17.58;85.11
61961;BME280;47923;42.506;24.192;2023-09-07T03:03:34;95739.25;;;16.03;86.14
61961;BME280;47923;42.506;24.192;2023-09-07T03:06:11;96058.41;;;18.15;87.59
61961;BME280;47923;42.506;24.192;2023-09-07T03:08:36;96013.91;;;17.83;85.95
61961;BME280;47923;42.506;24.192;2023-09-07T03:11:06;95947.16;;;17.37;86.61
61961;BME280;47923;42.506;24.192;2023-09-07T03:13:31;96051.75;;;18.06;87.29
61961;BME280;47923;42.506;24.192;2023-09-07T03:15:58;95961.97;;;17.33;86.48
61961;BME280;47923;42.506;24.192;2023-09-07T03:18:23;95849.59;;;16.63;86.01
61961;BME280;47923;42.506;24.192;2023-09-07T03:20:50;96026.75;;;17.68;86.92
61961;BME280;47923;42.506;24.192;2023-09-07T03:23:16;96046.69;;;17.76;86.04
61961;BME280;47923;42.506;24.192;2023-09-07T03:25:41;96033.38;;;17.53;86.28
61961;BME280;47923;42.506;24.192;2023-09-07T03:28:07;95951.78;;;16.83;86.24
61961;BME280;47923;42.506;24.192;2023-09-07T03:30:33;96008.81;;;17.35;89.05
61961;BME280;47923;42.506;24.192;2023-09-07T03:32:58;95943.88;;;16.64;89.87
61961;BME280;47923;42.506;24.192;2023-09-07T03:35:24;95905.28;;;16.48;89.64
61961;BME280;47923;42.506;24.192;2023-09-07T03:37:49;95911.09;;;16.43;90.60
61961;BME280;47923;42.506;24.192;2023-09-07T03:40:15;96049.34;;;17.29;90.71
61961;BME280;47923;42.506;24.192;2023-09-07T03:42:40;95929.03;;;16.47;90.21
61961;BME280;47923;42.506;24.192;2023-09-07T03:45:06;96029.38;;;17.04;90.36
61961;BME280;47923;42.506;24.192;2023-09-07T03:47:32;95839.97;;;15.79;91.34
61961;BME280;47923;42.506;24.192;2023-09-07T03:49:58;95423.63;;;12.91;89.48
61961;BME280;47923;42.506;24.192;2023-09-07T03:52:24;96062.56;;;17.09;89.69
61961;BME280;47923;42.506;24.192;2023-09-07T03:54:53;96041.84;;;16.94;89.35
61961;BME280;47923;42.506;24.192;2023-09-07T03:57:19;95935.16;;;16.19;89.03
61961;BME280;47923;42.506;24.192;2023-09-07T03:59:45;96070.00;;;17.20;90.33
61961;BME280;47923;42.506;24.192;2023-09-07T04:02:11;95842.69;;;15.75;90.61
61961;BME280;47923;42.506;24.192;2023-09-07T04:04:38;96063.78;;;17.30;91.00
61961;BME280;47923;42.506;24.192;2023-09-07T04:07:04;96017.72;;;17.07;90.66
61961;BME280;47923;42.506;24.192;2023-09-07T04:09:29;95972.03;;;16.79;89.92
61961;BME280;47923;42.506;24.192;2023-09-07T04:11:54;96065.41;;;17.63;88.78
61961;BME280;47923;42.506;24.192;2023-09-07T04:14:20;96004.09;;;17.39;87.16
61961;BME280;47923;42.506;24.192;2023-09-07T04:16:45;96079.91;;;17.78;87.00
61961;BME280;47923;42.506;24.192;2023-09-07T04:19:11;96076.00;;;18.04;85.12
61961;BME280;47923;42.506;24.192;2023-09-07T04:21:37;95886.69;;;17.03;82.92
61961;BME280;47923;42.506;24.192;2023-09-07T04:24:04;96065.00;;;18.36;82.57
61961;BME280;47923;42.506;24.192;2023-09-07T04:26:30;96069.69;;;18.42;81.81
61961;BME280;47923;42.506;24.192;2023-09-07T04:28:55;95638.00;;;15.77;79.45
61961;BME280;47923;42.506;24.192;2023-09-07T04:31:21;96059.91;;;18.66;80.13
61961;BME280;47923;42.506;24.192;2023-09-07T04:33:47;96067.66;;;18.78;79.83
61961;BME280;47923;42.506;24.192;2023-09-07T04:36:15;95453.13;;;14.86;79.69
61961;BME280;47923;42.506;24.192;2023-09-07T04:38:40;96066.41;;;19.01;77.91
61961;BME280;47923;42.506;24.192;2023-09-07T04:41:10;95871.03;;;17.79;78.65
61961;BME280;47923;42.506;24.192;2023-09-07T04:43:38;96074.09;;;19.31;77.97
61961;BME280;47923;42.506;24.192;2023-09-07T04:46:06;95816.00;;;17.80;76.91
61961;BME280;47923;42.506;24.192;2023-09-07T04:48:32;96069.19;;;19.67;76.00
61961;BME280;47923;42.506;24.192;2023-09-07T04:51:00;95949.81;;;19.07;73.33
61961;BME280;47923;42.506;24.192;2023-09-07T04:53:28;95565.16;;;16.45;72.55
61961;BME280;47923;42.506;24.192;2023-09-07T04:55:54;96070.72;;;20.24;72.22
61961;BME280;47923;42.506;24.192;2023-09-07T04:58:20;96080.78;;;20.37;71.70
61961;BME280;47923;42.506;24.192;2023-09-07T05:00:45;96071.31;;;20.46;70.37
61961;BME280;47923;42.506;24.192;2023-09-07T05:03:11;95766.69;;;18.68;69.04
61961;BME280;47923;42.506;24.192;2023-09-07T05:05:38;96072.59;;;21.06;67.73
61961;BME280;47923;42.506;24.192;2023-09-07T05:08:15;96071.28;;;21.17;67.20
61961;BME280;47923;42.506;24.192;2023-09-07T05:10:41;96081.44;;;21.20;66.73
61961;BME280;47923;42.506;24.192;2023-09-07T05:13:07;95996.19;;;20.66;66.54
61961;BME280;47923;42.506;24.192;2023-09-07T05:15:33;96050.09;;;21.18;65.82
61961;BME280;47923;42.506;24.192;2023-09-07T05:17:58;95898.16;;;20.33;64.86
61961;BME280;47923;42.506;24.192;2023-09-07T05:20:24;95941.63;;;20.72;64.65
61961;BME280;47923;42.506;24.192;2023-09-07T05:22:49;95820.03;;;20.41;62.70
61961;BME280;47923;42.506;24.192;2023-09-07T05:25:16;96075.25;;;22.48;61.40
61961;BME280;47923;42.506;24.192;2023-09-07T05:27:41;96062.19;;;22.52;60.03
61961;BME280;47923;42.506;24.192;2023-09-07T05:30:07;95935.78;;;21.74;58.88
61961;BME280;47923;42.506;24.192;2023-09-07T05:32:33;96004.94;;;23.03;56.56
61961;BME280;47923;42.506;24.192;2023-09-07T05:34:58;96009.78;;;25.83;48.92
61961;BME280;47923;42.506;24.192;2023-09-07T05:37:24;96002.59;;;28.60;41.08
61961;BME280;47923;42.506;24.192;2023-09-07T05:39:49;96067.88;;;30.56;38.36
61961;BME280;47923;42.506;24.192;2023-09-07T05:42:15;96032.59;;;31.06;35.81
61961;BME280;47923;42.506;24.192;2023-09-07T05:44:41;96078.28;;;32.62;33.20
61961;BME280;47923;42.506;24.192;2023-09-07T05:47:06;96068.56;;;32.78;32.64
61961;BME280;47923;42.506;24.192;2023-09-07T05:49:32;95718.16;;;31.47;30.79
61961;BME280;47923;42.506;24.192;2023-09-07T05:51:57;96077.66;;;33.97;30.19
61961;BME280;47923;42.506;24.192;2023-09-07T05:54:23;96071.88;;;35.03;29.16
61961;BME280;47923;42.506;24.192;2023-09-07T05:56:48;96081.47;;;36.12;27.41
61961;BME280;47923;42.506;24.192;2023-09-07T05:59:14;96055.41;;;37.44;26.04
61961;BME280;47923;42.506;24.192;2023-09-07T06:01:40;95934.75;;;36.71;25.42
61961;BME280;47923;42.506;24.192;2023-09-07T06:04:06;96043.56;;;37.51;25.00
61961;BME280;47923;42.506;24.192;2023-09-07T06:06:32;96072.03;;;37.53;24.99
61961;BME280;47923;42.506;24.192;2023-09-07T06:08:57;96081.94;;;37.19;25.47
61961;BME280;47923;42.506;24.192;2023-09-07T06:11:26;95923.81;;;36.57;24.42
61961;BME280;47923;42.506;24.192;2023-09-07T06:13:51;95908.41;;;36.11;25.16
61961;BME280;47923;42.506;24.192;2023-09-07T06:16:17;96024.72;;;38.01;24.15
61961;BME280;47923;42.506;24.192;2023-09-07T06:18:42;95860.25;;;37.14;22.90
61961;BME280;47923;42.506;24.192;2023-09-07T06:21:08;96072.34;;;38.83;22.63
61961;BME280;47923;42.506;24.192;2023-09-07T06:23:33;96079.22;;;39.07;22.59
61961;BME280;47923;42.506;24.192;2023-09-07T06:25:59;96072.38;;;39.02;21.86
61961;BME280;47923;42.506;24.192;2023-09-07T06:28:26;96089.50;;;39.29;21.64
61961;BME280;47923;42.506;24.192;2023-09-07T06:30:51;95914.53;;;37.99;21.69
61961;BME280;47923;42.506;24.192;2023-09-07T06:33:17;96085.41;;;36.89;23.15
61961;BME280;47923;42.506;24.192;2023-09-07T06:35:43;95731.59;;;37.89;20.61
61961;BME280;47923;42.506;24.192;2023-09-07T06:38:08;95878.03;;;37.82;20.58
61961;BME280;47923;42.506;24.192;2023-09-07T06:40:34;96093.44;;;40.09;20.21
61961;BME280;47923;42.506;24.192;2023-09-07T06:42:59;96024.16;;;40.68;19.09
61961;BME280;47923;42.506;24.192;2023-09-07T06:45:25;96049.44;;;40.93;19.22
61961;BME280;47923;42.506;24.192;2023-09-07T06:47:50;96078.94;;;40.71;19.33
61961;BME280;47923;42.506;24.192;2023-09-07T06:50:16;95852.34;;;35.55;22.95
61961;BME280;47923;42.506;24.192;2023-09-07T06:52:41;95979.78;;;33.93;26.46
61961;BME280;47923;42.506;24.192;2023-09-07T06:55:07;96080.75;;;36.00;25.07
61961;BME280;47923;42.506;24.192;2023-09-07T06:57:32;96081.34;;;38.33;21.69
61961;BME280;47923;42.506;24.192;2023-09-07T06:59:59;96074.41;;;38.34;21.16
61961;BME280;47923;42.506;24.192;2023-09-07T07:02:25;95758.84;;;35.65;22.09
61961;BME280;47923;42.506;24.192;2023-09-07T07:04:51;96020.63;;;36.95;23.11
61961;BME280;47923;42.506;24.192;2023-09-07T07:07:17;95887.53;;;34.44;24.07
61961;BME280;47923;42.506;24.192;2023-09-07T07:09:43;95845.97;;;35.54;23.70
61961;BME280;47923;42.506;24.192;2023-09-07T07:12:08;96076.78;;;38.79;20.87
61961;BME280;47923;42.506;24.192;2023-09-07T07:14:34;96063.44;;;38.98;22.02
61961;BME280;47923;42.506;24.192;2023-09-07T07:16:59;95983.56;;;36.10;22.91
61961;BME280;47923;42.506;24.192;2023-09-07T07:19:27;96069.44;;;37.08;23.20
61961;BME280;47923;42.506;24.192;2023-09-07T07:21:52;96064.59;;;38.65;21.63
61961;BME280;47923;42.506;24.192;2023-09-07T07:24:18;95977.41;;;39.82;19.38
61961;BME280;47923;42.506;24.192;2023-09-07T07:26:44;96000.91;;;41.44;18.83
61961;BME280;47923;42.506;24.192;2023-09-07T07:29:09;96077.50;;;42.06;17.42
61961;BME280;47923;42.506;24.192;2023-09-07T07:31:35;95978.44;;;41.46;17.24
61961;BME280;47923;42.506;24.192;2023-09-07T07:34:00;95857.03;;;37.83;19.50
61961;BME280;47923;42.506;24.192;2023-09-07T07:36:25;96076.00;;;39.72;19.56
61961;BME280;47923;42.506;24.192;2023-09-07T07:38:51;96051.81;;;39.90;19.10
61961;BME280;47923;42.506;24.192;2023-09-07T07:41:16;96069.19;;;39.81;19.54
61961;BME280;47923;42.506;24.192;2023-09-07T07:43:42;96070.66;;;40.99;18.16
61961;BME280;47923;42.506;24.192;2023-09-07T07:46:08;95757.66;;;38.14;15.62
61961;BME280;47923;42.506;24.192;2023-09-07T07:48:33;96078.72;;;39.65;14.73
61961;BME280;47923;42.506;24.192;2023-09-07T07:51:03;95940.25;;;36.94;16.34
61961;BME280;47923;42.506;24.192;2023-09-07T07:53:29;96077.31;;;38.28;16.62
61961;BME280;47923;42.506;24.192;2023-09-07T07:55:54;96018.16;;;38.85;16.28
61961;BME280;47923;42.506;24.192;2023-09-07T07:58:21;95765.59;;;37.05;16.35
61961;BME280;47923;42.506;24.192;2023-09-07T08:00:47;95857.97;;;38.10;16.32
61961;BME280;47923;42.506;24.192;2023-09-07T08:03:14;95861.66;;;38.61;15.29
61961;BME280;47923;42.506;24.192;2023-09-07T08:05:39;95992.16;;;40.47;14.58
61961;BME280;47923;42.506;24.192;2023-09-07T08:08:05;95521.19;;;33.17;17.24
61961;BME280;47923;42.506;24.192;2023-09-07T08:10:35;95960.34;;;35.98;17.25
61961;BME280;47923;42.506;24.192;2023-09-07T08:13:02;96071.63;;;36.80;17.35
61961;BME280;47923;42.506;24.192;2023-09-07T08:15:28;96053.38;;;34.68;18.13
61961;BME280;47923;42.506;24.192;2023-09-07T08:17:53;95975.28;;;33.70;19.73
61961;BME280;47923;42.506;24.192;2023-09-07T08:38:06;95901.06;;;39.05;14.96
61961;BME280;47923;42.506;24.192;2023-09-07T08:40:34;96040.44;;;40.09;14.46
61961;BME280;47923;42.506;24.192;2023-09-07T08:43:04;96035.72;;;39.85;15.16
61961;BME280;47923;42.506;24.192;2023-09-07T08:45:31;96038.19;;;38.62;15.80
61961;BME280;47923;42.506;24.192;2023-09-07T08:48:02;96045.22;;;38.01;17.02
61961;BME280;47923;42.506;24.192;2023-09-07T08:50:30;96044.72;;;36.79;17.40
61961;BME280;47923;42.506;24.192;2023-09-07T08:52:56;95721.75;;;35.09;17.42
61961;BME280;47923;42.506;24.192;2023-09-07T08:55:25;95980.53;;;36.72;16.75
61961;BME280;47923;42.506;24.192;2023-09-07T08:57:51;95674.34;;;36.40;16.11
61961;BME280;47923;42.506;24.192;2023-09-07T09:00:16;95742.19;;;36.91;15.33
61961;BME280;47923;42.506;24.192;2023-09-07T09:02:43;96025.09;;;37.56;16.22
61961;BME280;47923;42.506;24.192;2023-09-07T09:05:12;96040.25;;;39.24;15.41
61961;BME280;47923;42.506;24.192;2023-09-07T09:07:39;96007.81;;;38.93;15.74
61961;BME280;47923;42.506;24.192;2023-09-07T09:10:06;95827.69;;;36.52;16.14
61961;BME280;47923;42.506;24.192;2023-09-07T09:12:32;96028.38;;;37.96;16.61
61961;BME280;47923;42.506;24.192;2023-09-07T09:14:58;95975.06;;;36.44;16.98
61961;BME280;47923;42.506;24.192;2023-09-07T09:17:24;95853.94;;;35.28;16.90
61961;BME280;47923;42.506;24.192;2023-09-07T09:19:50;96029.81;;;35.31;18.00
61961;BME280;47923;42.506;24.192;2023-09-07T09:22:15;95995.31;;;36.89;17.05
61961;BME280;47923;42.506;24.192;2023-09-07T09:24:41;95990.84;;;38.31;16.30
61961;BME280;47923;42.506;24.192;2023-09-07T09:27:07;96019.09;;;38.93;15.33
61961;BME280;47923;42.506;24.192;2023-09-07T09:29:33;96013.63;;;37.84;15.98
61961;BME280;47923;42.506;24.192;2023-09-07T09:32:03;96001.69;;;37.31;16.49
61961;BME280;47923;42.506;24.192;2023-09-07T09:34:33;95950.13;;;36.65;17.16
61961;BME280;47923;42.506;24.192;2023-09-07T09:37:00;96007.59;;;36.17;18.00
61961;BME280;47923;42.506;24.192;2023-09-07T09:39:26;95950.53;;;36.86;17.56
61961;BME280;47923;42.506;24.192;2023-09-07T09:41:52;96011.56;;;37.84;16.85
61961;BME280;47923;42.506;24.192;2023-09-07T09:44:20;96005.06;;;37.24;16.95
61961;BME280;47923;42.506;24.192;2023-09-07T09:46:47;95999.97;;;37.88;15.94
61961;BME280;47923;42.506;24.192;2023-09-07T09:49:14;95998.75;;;37.83;16.43
61961;BME280;47923;42.506;24.192;2023-09-07T09:51:42;96003.47;;;37.70;17.12
61961;BME280;47923;42.506;24.192;2023-09-07T09:54:08;96004.19;;;36.35;17.97
61961;BME280;47923;42.506;24.192;2023-09-07T09:56:34;96003.34;;;34.55;20.04
61961;BME280;47923;42.506;24.192;2023-09-07T09:58:59;95998.47;;;34.50;20.89
61961;BME280;47923;42.506;24.192;2023-09-07T10:01:25;95919.47;;;34.03;20.94
61961;BME280;47923;42.506;24.192;2023-09-07T10:03:52;95998.25;;;34.11;21.42
61961;BME280;47923;42.506;24.192;2023-09-07T10:06:23;95993.97;;;34.86;21.24
61961;BME280;47923;42.506;24.192;2023-09-07T10:09:02;95822.03;;;35.03;19.68
61961;BME280;47923;42.506;24.192;2023-09-07T10:11:34;95950.69;;;35.77;19.39
61961;BME280;47923;42.506;24.192;2023-09-07T10:14:01;95994.59;;;35.97;18.80
61961;BME280;47923;42.506;24.192;2023-09-07T10:16:47;95981.03;;;34.35;20.95
61961;BME280;47923;42.506;24.192;2023-09-07T10:19:24;95948.66;;;33.86;21.77
61961;BME280;47923;42.506;24.192;2023-09-07T10:21:52;96013.25;;;34.08;21.31
61961;BME280;47923;42.506;24.192;2023-09-07T10:27:01;95965.69;;;34.96;20.11
61961;BME280;47923;42.506;24.192;2023-09-07T10:29:27;95958.19;;;34.48;21.37
61961;BME280;47923;42.506;24.192;2023-09-07T10:31:53;95495.72;;;31.64;20.79
61961;BME280;47923;42.506;24.192;2023-09-07T10:34:19;95916.50;;;32.81;22.43
61961;BME280;47923;42.506;24.192;2023-09-07T10:36:46;95752.59;;;31.64;22.11
61961;BME280;47923;42.506;24.192;2023-09-07T10:39:12;95975.69;;;32.12;23.00
61961;BME280;47923;42.506;24.192;2023-09-07T10:41:45;95978.81;;;32.00;23.63
61961;BME280;47923;42.506;24.192;2023-09-07T10:44:11;95989.56;;;31.72;23.95
61961;BME280;47923;42.506;24.192;2023-09-07T10:46:38;95993.00;;;31.02;24.88
61961;BME280;47923;42.506;24.192;2023-09-07T10:49:07;95967.66;;;30.76;26.14
61961;BME280;47923;42.506;24.192;2023-09-07T10:51:40;95811.00;;;30.33;26.01
61961;BME280;47923;42.506;24.192;2023-09-07T10:54:14;95990.59;;;30.32;27.64
61961;BME280;47923;42.506;24.192;2023-09-07T10:56:39;95534.78;;;27.73;27.42
61961;BME280;47923;42.506;24.192;2023-09-07T10:59:05;95684.66;;;28.24;27.75
61961;BME280;47923;42.506;24.192;2023-09-07T11:01:30;95963.09;;;30.49;27.19
61961;BME280;47923;42.506;24.192;2023-09-07T11:03:56;95959.00;;;30.74;27.28
61961;BME280;47923;42.506;24.192;2023-09-07T11:06:22;95991.53;;;29.39;27.94
61961;BME280;47923;42.506;24.192;2023-09-07T11:08:48;95981.00;;;28.73;29.25
61961;BME280;47923;42.506;24.192;2023-09-07T11:11:14;95985.75;;;28.82;29.65
61961;BME280;47923;42.506;24.192;2023-09-07T11:13:40;95861.97;;;28.35;29.02
61961;BME280;47923;42.506;24.192;2023-09-07T11:16:09;95886.81;;;28.02;29.06
61961;BME280;47923;42.506;24.192;2023-09-07T11:18:35;95970.31;;;28.62;29.08
61961;BME280;47923;42.506;24.192;2023-09-07T11:21:03;95975.63;;;29.30;28.71
61961;BME280;47923;42.506;24.192;2023-09-07T11:23:31;95853.81;;;28.31;28.81
61961;BME280;47923;42.506;24.192;2023-09-07T11:26:07;95972.16;;;29.44;27.74
61961;BME280;47923;42.506;24.192;2023-09-07T11:28:32;95969.84;;;29.52;27.57
61961;BME280;47923;42.506;24.192;2023-09-07T11:30:58;95965.47;;;30.17;26.99
61961;BME280;47923;42.506;24.192;2023-09-07T11:33:25;95975.47;;;30.48;26.58
61961;BME280;47923;42.506;24.192;2023-09-07T11:35:51;95903.66;;;30.43;26.25
61961;BME280;47923;42.506;24.192;2023-09-07T11:38:17;95914.59;;;30.08;26.44
61961;BME280;47923;42.506;24.192;2023-09-07T11:40:43;95962.34;;;30.24;26.47
61961;BME280;47923;42.506;24.192;2023-09-07T11:43:13;95889.19;;;30.15;26.18
61961;BME280;47923;42.506;24.192;2023-09-07T11:45:43;95895.69;;;30.36;25.85
61961;BME280;47923;42.506;24.192;2023-09-07T11:48:10;95657.78;;;28.40;26.32
61961;BME280;47923;42.506;24.192;2023-09-07T11:50:36;95959.44;;;30.19;26.52
61961;BME280;47923;42.506;24.192;2023-09-07T11:53:03;95869.88;;;28.97;26.81
61961;BME280;47923;42.506;24.192;2023-09-07T11:55:29;95516.28;;;27.09;26.06
61961;BME280;47923;42.506;24.192;2023-09-07T11:57:55;95822.69;;;28.70;30.24
61961;BME280;47923;42.506;24.192;2023-09-07T12:00:20;95878.22;;;29.39;30.47
61961;BME280;47923;42.506;24.192;2023-09-07T12:02:47;95871.34;;;29.50;29.96
61961;BME280;47923;42.506;24.192;2023-09-07T12:05:13;95663.06;;;27.77;30.65
61961;BME280;47923;42.506;24.192;2023-09-07T12:07:41;95566.63;;;26.71;31.51
61961;BME280;47923;42.506;24.192;2023-09-07T12:10:08;95934.44;;;29.43;32.00
61961;BME280;47923;42.506;24.192;2023-09-07T12:12:40;95865.63;;;29.20;31.36
61961;BME280;47923;42.506;24.192;2023-09-07T12:15:06;95828.94;;;28.19;32.42
61961;BME280;47923;42.506;24.192;2023-09-07T12:17:32;95938.69;;;28.60;32.59
61961;BME280;47923;42.506;24.192;2023-09-07T12:19:58;95581.53;;;25.97;33.24
61961;BME280;47923;42.506;24.192;2023-09-07T12:22:23;95702.72;;;26.73;33.48
61961;BME280;47923;42.506;24.192;2023-09-07T12:24:49;95935.72;;;28.63;32.71
61961;BME280;47923;42.506;24.192;2023-09-07T12:27:15;95864.16;;;28.31;33.16
61961;BME280;47923;42.506;24.192;2023-09-07T12:29:41;95935.69;;;29.00;32.70
61961;BME280;47923;42.506;24.192;2023-09-07T12:32:06;95881.81;;;28.79;32.42
61961;BME280;47923;42.506;24.192;2023-09-07T12:34:32;95938.38;;;28.58;33.46
61961;BME280;47923;42.506;24.192;2023-09-07T12:36:57;95930.00;;;27.94;34.38
61961;BME280;47923;42.506;24.192;2023-09-07T12:39:24;95299.97;;;24.09;33.76
61961;BME280;47923;42.506;24.192;2023-09-07T12:41:49;95627.03;;;25.96;34.45
61961;BME280;47923;42.506;24.192;2023-09-07T12:44:15;95619.72;;;25.27;34.61
61961;BME280;47923;42.506;24.192;2023-09-07T12:46:40;95846.84;;;26.29;35.23
61961;BME280;47923;42.506;24.192;2023-09-07T12:49:06;95972.56;;;27.10;35.38
61961;BME280;47923;42.506;24.192;2023-09-07T12:51:31;95960.25;;;26.89;35.95
61961;BME280;47923;42.506;24.192;2023-09-07T12:53:57;95958.50;;;27.36;35.35
61961;BME280;47923;42.506;24.192;2023-09-07T12:56:22;95965.06;;;27.20;35.58
61961;BME280;47923;42.506;24.192;2023-09-07T12:58:48;95962.97;;;27.73;34.51
61961;BME280;47923;42.506;24.192;2023-09-07T13:01:14;95947.31;;;27.58;34.45
61961;BME280;47923;42.506;24.192;2023-09-07T13:03:41;95952.50;;;27.37;34.33
61961;BME280;47923;42.506;24.192;2023-09-07T13:06:07;95904.50;;;26.65;35.27